createdAt,value
2022-11-11T00:02:56.762Z,13.23
2022-11-11T00:06:16.882Z,13.19
2022-11-11T00:09:36.748Z,13.22
2022-11-11T00:13:03.347Z,13.18
2022-11-11T00:16:23.297Z,13.18
2022-11-11T00:20:02.221Z,13.13
2022-11-11T00:23:41.669Z,13.09
2022-11-11T00:27:02.591Z,13.04
2022-11-11T00:30:22.962Z,13.07
2022-11-11T00:33:43.031Z,13.04
2022-11-11T00:37:02.976Z,13.02
2022-11-11T00:40:22.893Z,13.02
2022-11-11T00:43:42.990Z,12.99
2022-11-11T00:47:21.945Z,12.96
2022-11-11T00:51:00.671Z,12.94
2022-11-11T00:54:20.976Z,12.94
2022-11-11T00:57:41.561Z,12.90
2022-11-11T01:01:01.651Z,12.91
2022-11-11T01:04:22.365Z,12.89
2022-11-11T01:07:42.929Z,12.84
2022-11-11T01:11:03.288Z,12.85
2022-11-11T01:14:23.812Z,12.85
2022-11-11T01:17:43.719Z,12.84
2022-11-11T01:21:04.902Z,12.81
2022-11-11T01:24:25.077Z,12.79
2022-11-11T01:27:45.379Z,12.77
2022-11-11T01:31:06.796Z,12.73
2022-11-11T01:34:27.874Z,12.68
2022-11-11T01:37:48.311Z,12.64
2022-11-11T01:41:27.261Z,12.64
2022-11-11T01:44:48.156Z,12.59
2022-11-11T01:48:32.607Z,12.60
2022-11-11T01:52:00.098Z,12.59
2022-11-11T01:55:20.812Z,12.54
2022-11-11T01:58:41.307Z,12.50
2022-11-11T02:02:01.667Z,12.46
2022-11-11T02:05:41.257Z,12.49
2022-11-11T02:09:01.831Z,12.48
2022-11-11T02:12:40.662Z,12.53
2022-11-11T02:16:00.916Z,12.55
2022-11-11T02:19:22.406Z,12.53
2022-11-11T02:22:44.864Z,12.60
2022-11-11T02:26:05.066Z,12.61
2022-11-11T02:29:25.435Z,12.59
2022-11-11T02:32:46.697Z,12.60
2022-11-11T02:36:07.024Z,12.54
2022-11-11T02:39:36.869Z,12.57
2022-11-11T02:43:07.513Z,12.61
2022-11-11T02:46:27.922Z,12.62
2022-11-11T02:49:48.101Z,12.60
2022-11-11T02:53:08.704Z,12.58
2022-11-11T02:56:58.551Z,12.56
2022-11-11T03:00:18.672Z,12.54
2022-11-11T03:03:38.663Z,12.54
2022-11-11T03:06:59.062Z,12.56
2022-11-11T03:10:19.407Z,12.59
2022-11-11T03:13:39.383Z,12.67
2022-11-11T03:17:18.614Z,12.71
2022-11-11T03:20:57.232Z,12.85
2022-11-11T03:24:17.509Z,12.82
2022-11-11T03:27:37.450Z,12.82
2022-11-11T03:31:03.911Z,12.84
2022-11-11T03:34:24.330Z,12.87
2022-11-11T03:38:03.152Z,12.90
2022-11-11T03:41:23.196Z,12.91
2022-11-11T03:44:43.320Z,12.93
2022-11-11T03:48:03.420Z,12.91
2022-11-11T03:51:23.794Z,12.89
2022-11-11T03:54:43.802Z,12.89
2022-11-11T03:58:08.601Z,12.92
2022-11-11T04:05:43.869Z,12.96
2022-11-11T04:09:22.647Z,12.92
2022-11-11T04:13:01.420Z,12.94
2022-11-11T04:16:21.444Z,12.94
2022-11-11T04:20:00.017Z,12.94
2022-11-11T04:23:20.394Z,12.92
2022-11-11T04:26:40.622Z,12.90
2022-11-11T04:30:00.611Z,12.90
2022-11-11T04:33:20.564Z,12.89
2022-11-11T04:36:40.960Z,12.89
2022-11-11T04:40:19.575Z,12.84
2022-11-11T04:43:58.519Z,12.82
2022-11-11T04:47:18.576Z,12.81
2022-11-11T04:50:39.432Z,12.77
2022-11-11T04:53:59.420Z,12.76
2022-11-11T04:57:19.971Z,12.73
2022-11-11T05:00:40.115Z,12.68
2022-11-11T05:04:00.339Z,12.67
2022-11-11T05:07:38.834Z,12.65
2022-11-11T05:10:58.889Z,12.68
2022-11-11T05:14:37.419Z,12.65
2022-11-11T05:18:16.260Z,12.70
2022-11-11T05:21:36.467Z,12.71
2022-11-11T05:25:15.004Z,12.65
2022-11-11T05:28:34.814Z,12.69
2022-11-11T05:31:54.653Z,12.75
2022-11-11T05:35:14.771Z,12.74
2022-11-11T05:38:34.787Z,12.78
2022-11-11T05:41:54.538Z,12.74
2022-11-11T05:45:14.400Z,12.76
2022-11-11T05:48:34.390Z,12.74
2022-11-11T05:51:55.686Z,12.77
2022-11-11T05:55:15.524Z,12.80
2022-11-11T05:58:35.554Z,12.81
2022-11-11T06:01:55.674Z,12.80
2022-11-11T06:05:15.773Z,12.80
2022-11-11T06:08:35.563Z,12.82
2022-11-11T06:11:55.801Z,12.88
2022-11-11T06:15:16.268Z,12.85
2022-11-11T06:18:36.751Z,12.90
2022-11-11T06:22:01.096Z,12.90
2022-11-11T06:25:39.776Z,12.89
2022-11-11T06:28:59.995Z,12.99
2022-11-11T06:32:19.849Z,13.03
2022-11-11T06:35:40.076Z,13.06
2022-11-11T06:39:00.235Z,13.06
2022-11-11T06:42:20.200Z,13.08
2022-11-11T06:45:40.515Z,13.06
2022-11-11T06:49:00.453Z,13.08
2022-11-11T06:52:20.459Z,13.07
2022-11-11T06:55:40.794Z,13.02
2022-11-11T06:59:00.740Z,13.03
2022-11-11T07:02:20.724Z,12.99
2022-11-11T07:05:40.872Z,12.96
2022-11-11T07:09:01.109Z,12.96
2022-11-11T07:12:20.840Z,12.93
2022-11-11T07:15:41.137Z,12.99
2022-11-11T07:19:01.388Z,12.98
2022-11-11T07:22:21.587Z,12.99
2022-11-11T07:25:41.450Z,13.10
2022-11-11T07:29:01.147Z,13.17
2022-11-11T07:32:20.977Z,13.23
2022-11-11T07:35:40.798Z,13.26
2022-11-11T07:39:02.780Z,13.29
2022-11-11T07:42:31.543Z,13.35
2022-11-11T07:45:51.836Z,13.40
2022-11-11T07:49:11.932Z,13.36
2022-11-11T07:52:31.847Z,13.36
2022-11-11T07:55:51.785Z,13.36
2022-11-11T07:59:11.881Z,13.36
2022-11-11T08:02:31.911Z,13.37
2022-11-11T08:05:52.088Z,13.37
2022-11-11T08:09:12.310Z,13.40
2022-11-11T08:12:51.280Z,13.42
2022-11-11T08:16:12.017Z,13.45
2022-11-11T08:19:31.941Z,13.47
2022-11-11T08:23:24.599Z,13.56
2022-11-11T08:26:35.589Z,13.57
2022-11-11T08:29:55.598Z,13.57
2022-11-11T08:36:55.494Z,13.59
2022-11-11T08:40:16.095Z,13.59
2022-11-11T08:43:37.504Z,13.59
2022-11-11T08:46:58.169Z,13.55
2022-11-11T08:50:18.123Z,13.52
2022-11-11T08:53:38.196Z,13.54
2022-11-11T08:56:58.295Z,13.50
2022-11-11T09:00:20.143Z,13.51
2022-11-11T09:03:43.406Z,13.49
2022-11-11T09:07:03.574Z,13.56
2022-11-11T09:10:23.646Z,13.60
2022-11-11T09:13:43.989Z,13.67
2022-11-11T09:17:03.997Z,13.73
2022-11-11T09:20:25.385Z,13.70
2022-11-11T09:23:45.581Z,13.73
2022-11-11T09:27:05.588Z,13.73
2022-11-11T09:30:25.995Z,13.75
2022-11-11T09:33:45.975Z,13.84
2022-11-11T09:37:05.841Z,13.88
2022-11-11T09:40:26.448Z,13.96
2022-11-11T09:43:56.605Z,13.97
2022-11-11T09:47:19.190Z,13.93
2022-11-11T09:50:39.346Z,13.99
2022-11-11T09:54:03.821Z,14.06
2022-11-11T09:57:26.594Z,14.14
2022-11-11T10:00:47.214Z,14.13
2022-11-11T10:04:07.257Z,14.13
2022-11-11T10:07:38.257Z,14.15
2022-11-11T10:10:59.220Z,14.11
2022-11-11T10:14:19.309Z,14.10
2022-11-11T10:17:42.703Z,14.08
2022-11-11T10:21:02.836Z,14.05
2022-11-11T10:24:31.176Z,14.07
2022-11-11T10:27:52.316Z,14.12
2022-11-11T10:31:16.634Z,14.18
2022-11-11T10:34:36.772Z,14.17
2022-11-11T10:38:05.871Z,14.21
2022-11-11T10:41:37.850Z,14.20
2022-11-11T10:45:04.267Z,14.26
2022-11-11T10:48:51.267Z,14.15
2022-11-11T10:52:17.092Z,14.14
2022-11-11T10:55:46.482Z,14.06
2022-11-11T10:59:09.681Z,13.98
2022-11-11T11:02:30.955Z,13.96
2022-11-11T11:05:56.776Z,14.06
2022-11-11T11:09:35.527Z,14.06
2022-11-11T11:13:00.881Z,14.21
2022-11-11T11:16:24.728Z,14.27
2022-11-11T11:19:44.900Z,14.32
2022-11-11T11:23:05.029Z,14.48
2022-11-11T11:26:25.432Z,14.62
2022-11-11T11:29:45.964Z,14.64
2022-11-11T11:33:07.655Z,14.73
2022-11-11T11:36:27.569Z,14.92
2022-11-11T11:39:48.108Z,15.21
2022-11-11T11:43:20.568Z,15.40
2022-11-11T11:46:41.075Z,15.69
2022-11-11T11:50:04.217Z,15.69
2022-11-11T11:53:30.405Z,15.98
2022-11-11T11:56:51.988Z,15.79
2022-11-11T12:00:19.531Z,15.79
2022-11-11T12:03:39.526Z,15.88
2022-11-11T12:07:05.815Z,15.85
2022-11-11T12:10:44.492Z,15.82
2022-11-11T12:14:07.342Z,16.41
2022-11-11T12:17:47.578Z,16.13
2022-11-11T12:21:10.839Z,15.68
2022-11-11T12:24:42.869Z,15.53
2022-11-11T12:28:10.816Z,15.55
2022-11-11T12:31:38.075Z,15.60
2022-11-11T12:34:58.179Z,15.51
2022-11-11T12:38:24.515Z,15.66
2022-11-11T12:42:23.178Z,15.40
2022-11-11T12:45:54.534Z,15.34
2022-11-11T12:49:20.565Z,15.75
2022-11-11T12:52:40.585Z,15.40
2022-11-11T12:56:06.750Z,15.37
2022-11-11T12:59:45.624Z,15.43
2022-11-11T13:03:14.538Z,15.66
2022-11-11T13:06:39.052Z,15.77
2022-11-11T13:10:08.628Z,16.03
2022-11-11T13:13:29.552Z,15.74
2022-11-11T13:16:50.688Z,15.41
2022-11-11T13:20:16.595Z,15.47
2022-11-11T13:23:36.748Z,15.59
2022-11-11T13:27:23.006Z,15.60
2022-11-11T13:30:48.776Z,15.37
2022-11-11T13:34:12.470Z,15.59
2022-11-11T13:37:33.344Z,15.90
2022-11-11T13:40:55.040Z,16.04
2022-11-11T13:44:19.262Z,16.38
2022-11-11T13:47:40.136Z,16.21
2022-11-11T13:51:14.545Z,16.99
2022-11-11T13:54:35.153Z,16.82
2022-11-11T13:57:54.952Z,17.12
2022-11-11T14:01:14.866Z,16.98
2022-11-11T14:04:51.568Z,16.96
2022-11-11T14:08:29.166Z,18.20
2022-11-11T14:11:49.071Z,17.74
2022-11-11T14:15:27.833Z,18.37
2022-11-11T14:18:48.029Z,18.51
2022-11-11T14:22:23.437Z,18.19
2022-11-11T14:25:43.376Z,18.52
2022-11-11T14:29:06.551Z,18.47
2022-11-11T14:32:32.841Z,18.65
2022-11-11T14:36:00.704Z,18.82
2022-11-11T14:39:39.516Z,18.65
2022-11-11T14:43:00.317Z,19.08
2022-11-11T14:46:21.094Z,18.84
2022-11-11T14:49:44.262Z,18.73
2022-11-11T14:53:15.396Z,20.10
2022-11-11T14:56:35.474Z,19.59
2022-11-11T14:59:55.477Z,20.32
2022-11-11T15:03:18.609Z,19.52
2022-11-11T15:06:49.462Z,19.46
2022-11-11T15:10:28.103Z,19.77
2022-11-11T15:14:20.393Z,19.63
2022-11-11T15:17:56.305Z,19.42
2022-11-11T15:21:25.392Z,19.63
2022-11-11T15:24:51.419Z,17.43
2022-11-11T15:28:15.276Z,16.75
2022-11-11T15:31:53.812Z,16.18
2022-11-11T15:35:24.942Z,15.80
2022-11-11T15:38:44.876Z,15.56
2022-11-11T15:42:05.176Z,15.35
2022-11-11T15:45:35.032Z,15.06
2022-11-11T15:48:54.951Z,14.85
2022-11-11T15:52:21.851Z,14.73
2022-11-11T15:55:42.125Z,14.61
2022-11-11T15:59:18.780Z,14.59
2022-11-11T16:02:41.138Z,14.52
2022-11-11T16:06:05.666Z,14.40
2022-11-11T16:09:26.336Z,14.45
2022-11-11T16:12:48.590Z,14.43
2022-11-11T16:16:09.674Z,14.42
2022-11-11T16:19:32.659Z,14.45
2022-11-11T16:22:53.522Z,14.48
2022-11-11T16:26:13.550Z,14.42
2022-11-11T16:29:39.400Z,14.37
2022-11-11T16:32:59.552Z,14.42
2022-11-11T16:36:19.564Z,14.35
2022-11-11T16:39:39.669Z,14.33
2022-11-11T16:43:19.292Z,14.23
2022-11-11T16:46:39.944Z,14.17
2022-11-11T16:50:07.205Z,14.12
2022-11-11T16:53:28.372Z,14.15
2022-11-11T16:56:50.218Z,14.15
2022-11-11T17:00:17.747Z,14.14
2022-11-11T17:03:38.076Z,14.12
2022-11-11T17:07:01.784Z,14.13
2022-11-11T17:10:26.052Z,14.17
2022-11-11T17:13:46.152Z,14.27
2022-11-11T17:17:07.184Z,14.22
2022-11-11T17:20:27.231Z,14.14
2022-11-11T17:23:47.267Z,14.11
2022-11-11T17:27:07.662Z,14.02
2022-11-11T17:30:27.543Z,13.96
2022-11-11T17:33:47.485Z,13.91
2022-11-11T17:37:07.459Z,13.87
2022-11-11T17:40:28.087Z,13.92
2022-11-11T17:43:48.164Z,13.89
2022-11-11T17:47:08.264Z,13.88
2022-11-11T17:50:28.731Z,13.83
2022-11-11T17:53:49.169Z,13.77
2022-11-11T17:57:09.862Z,13.79
2022-11-11T18:00:29.961Z,13.78
2022-11-11T18:03:49.844Z,13.81
2022-11-11T18:07:10.326Z,13.72
2022-11-11T18:10:30.816Z,13.68
2022-11-11T18:13:52.365Z,13.67
2022-11-11T18:17:12.558Z,13.68
2022-11-11T18:20:32.956Z,13.64
2022-11-11T18:23:53.182Z,13.68
2022-11-11T18:27:13.513Z,13.62
2022-11-11T18:30:33.790Z,13.68
2022-11-11T18:33:53.841Z,13.67
2022-11-11T18:37:14.327Z,13.58
2022-11-11T18:40:34.538Z,13.51
2022-11-11T18:43:55.192Z,13.54
2022-11-11T18:47:15.541Z,13.50
2022-11-11T18:50:37.761Z,13.50
2022-11-11T18:53:58.079Z,13.48
2022-11-11T18:57:18.381Z,13.45
2022-11-11T19:00:38.366Z,13.43
2022-11-11T19:03:59.000Z,13.44
2022-11-11T19:07:19.082Z,13.35
2022-11-11T19:10:39.434Z,13.37
2022-11-11T19:13:59.937Z,13.36
2022-11-11T19:17:19.795Z,13.36
2022-11-11T19:20:40.187Z,13.28
2022-11-11T19:24:00.562Z,13.26
2022-11-11T19:27:20.667Z,13.28
2022-11-11T19:30:41.309Z,13.25
2022-11-11T19:34:01.644Z,13.24
2022-11-11T19:37:23.055Z,13.22
2022-11-11T19:40:43.006Z,13.21
2022-11-11T19:44:03.267Z,13.18
2022-11-11T19:47:23.397Z,13.18
2022-11-11T19:50:44.110Z,13.14
2022-11-11T19:54:04.610Z,13.12
2022-11-11T19:57:26.269Z,13.07
2022-11-11T20:00:46.218Z,13.05
2022-11-11T20:04:06.752Z,13.06
2022-11-11T20:07:27.117Z,13.04
2022-11-11T20:10:47.158Z,13.02
2022-11-11T20:14:07.973Z,13.01
2022-11-11T20:17:28.528Z,13.06
2022-11-11T20:20:48.666Z,13.01
2022-11-11T20:24:09.048Z,13.01
2022-11-11T20:27:29.192Z,12.99
2022-11-11T20:30:49.339Z,13.02
2022-11-11T20:34:10.208Z,13.05
2022-11-11T20:37:30.462Z,13.05
2022-11-11T20:40:57.604Z,13.00
2022-11-11T20:44:17.621Z,13.10
2022-11-11T20:47:37.601Z,13.05
2022-11-11T20:51:08.022Z,13.06
2022-11-11T20:54:28.046Z,13.08
2022-11-11T20:57:48.034Z,13.07
2022-11-11T21:01:09.629Z,13.11
2022-11-11T21:04:29.701Z,13.10
2022-11-11T21:07:50.132Z,13.07
2022-11-11T21:11:11.198Z,13.00
2022-11-11T21:14:31.558Z,13.02
2022-11-11T21:17:52.537Z,13.03
2022-11-11T21:21:17.256Z,13.13
2022-11-11T21:24:38.032Z,13.08
2022-11-11T21:27:59.204Z,13.09
2022-11-11T21:31:20.993Z,12.88
2022-11-11T21:34:43.738Z,12.92
2022-11-11T21:38:04.327Z,13.07
2022-11-11T21:41:25.789Z,12.96
2022-11-11T21:44:46.087Z,12.87
2022-11-11T21:48:06.297Z,12.90
2022-11-11T21:51:27.500Z,12.93
2022-11-11T21:54:47.593Z,12.94
2022-11-11T21:58:07.375Z,12.93
2022-11-11T22:01:30.383Z,12.98
2022-11-11T22:04:50.764Z,13.06
2022-11-11T22:08:19.839Z,12.92
2022-11-11T22:11:40.169Z,12.81
2022-11-11T22:15:00.599Z,12.75
2022-11-11T22:18:20.866Z,12.73
2022-11-11T22:21:41.090Z,12.74
2022-11-11T22:25:01.007Z,12.64
2022-11-11T22:28:20.826Z,12.52
2022-11-11T22:31:44.767Z,12.58
2022-11-11T22:35:05.153Z,12.66
2022-11-11T22:38:25.540Z,12.79
2022-11-11T22:41:46.074Z,12.77
2022-11-11T22:45:06.476Z,12.88
2022-11-11T22:48:26.948Z,12.83
2022-11-11T22:51:47.104Z,12.88
2022-11-11T22:55:07.273Z,12.86
2022-11-11T22:58:29.094Z,12.89
2022-11-11T23:01:49.022Z,12.90
2022-11-11T23:05:09.389Z,12.93
2022-11-11T23:08:29.264Z,13.01
2022-11-11T23:11:49.419Z,13.13
2022-11-11T23:15:09.670Z,13.07
2022-11-11T23:18:30.242Z,13.05
2022-11-11T23:21:50.299Z,12.95
2022-11-11T23:25:10.423Z,12.90
2022-11-11T23:28:30.684Z,12.89
2022-11-11T23:31:50.707Z,12.76
2022-11-11T23:35:10.724Z,12.81
2022-11-11T23:38:30.684Z,12.74
2022-11-11T23:41:50.775Z,12.68
2022-11-11T23:45:10.936Z,12.67
2022-11-11T23:48:31.602Z,12.72
2022-11-11T23:51:51.693Z,12.79
2022-11-11T23:55:11.613Z,12.83
2022-11-11T23:58:31.437Z,12.86
